Kennebunk, ME (04043)

11:53 AM EDT on September 16, 2014 (GMT -0400)
Turtle Cove at Pine Heights | Change Station
CLOSE
Current Station
Personal Weather Station
Location: Wells, ME
Elevation: 217 ft
Nearby Weather Stations

Elev 217 ft 43.38 °N, 70.60 °W | Updated 13 seconds ago

Mostly Cloudy
Mostly Cloudy
56.7 °F
Feels Like 56.7 °F
N
0.0
Wind Variable Wind from East
Gusts 0.0 mph

Today
High -- | Low -- °F
--% Chance of Precip.
Yesterday
High -- | Low -- °F
Precip. -- in
6:22 AM 6:50 PM
Last Quarter, 44% visible
Pressure 30.02 in
Visibility 10.0 miles
Clouds Overcast 7000 ft
Dew Point 55 °F
Humidity 94%
Rainfall 0.03 in
Snow Depth Not available.
UV 2 out of 12
Pollen .20 out of 12
Ozone Good
Flu Activity Not available.
METAR KSFM 161535Z AUTO 00000KT 10SM OVC070 14/11 A3002 RMK AO1

More Conditions Fewer Conditions

Pressure 30.02 in
Visibility 10.0 miles
Clouds Overcast 7000 ft
Dew Point 55 °F
Humidity 94%
Rainfall 0.03 in
Snow Depth Not available.
UV 2 out of 12
Pollen .20 out of 12
Ozone Good
Flu Activity Not available.
METAR KSFM 161535Z AUTO 00000KT 10SM OVC070 14/11 A3002 RMK AO1

More Conditions Fewer Conditions

10-Day Weather Forecast

Almanac

Astronomy

Sep. 16, 2014 Rise Set
Actual Time 6:22 AM EDT 6:50 PM EDT
Civil Twilight 5:53 AM EDT 7:19 PM EDT
Nautical Twilight 5:20 AM EDT 7:52 PM EDT
Astronomical Twilight 4:45 AM EDT 8:27 PM EDT
Moon No Moon Rise 2:18 PM EDT
Length of Visible Light 13h 25m
Length of Day
12h 27m
Tomorrow will be 2m 56s shorter.
Last Quarter, 44% of the Moon is Illuminated
Today
Last Quarter
Sep 24
New
Oct 1
First Quarter
Oct 8
Full
Oct 15
Last Quarter

Today's Extremes

State Highs State Lows

Community

WunderPhotos

Upload Photos

1,753,813 photos uploaded!

Nearby

Air Quality

  Air Quality AQ Index Pollutant
Yesterday Good
OZONE
Current Good
OZONE
Tuesday Good
OZONE
Tuesday Good
PM2.5
Wednesday Good
OZONE
Wednesday Good
PM2.5
Thursday Good
OZONE
Thursday Good
PM2.5
Friday Good
OZONE
Friday Good
PM2.5
Saturday Good
OZONE
Saturday Good
PM2.5

Snow Depth

Station Depth Elevation
No new snow has been reported.

Earthquake Activity

City Distance Mag. Time & Date
No recent earthquake activity has been reported nearby.
Minimum magnitude displayed is 2.5.

Coastal Water Temperatures

Place Temperature
Wells, ME 59.0 °F
Portland, ME 60.1 °F

Nearby Weather Stations